sensor_id;sensor_type;location;lat;lon;timestamp;pressure;altitude;pressure_sealevel;temperature;humidity
70968;BME280;58629;48.808;8.820;2023-06-26T00:02:10;97083.69;;;15.86;76.26
70968;BME280;58629;48.808;8.820;2023-06-26T00:04:36;97077.75;;;15.91;76.36
70968;BME280;58629;48.808;8.820;2023-06-26T00:07:03;97082.03;;;15.89;76.61
70968;BME280;58629;48.808;8.820;2023-06-26T00:09:29;97090.66;;;15.93;76.82
70968;BME280;58629;48.808;8.820;2023-06-26T00:11:54;97084.09;;;15.85;76.58
70968;BME280;58629;48.808;8.820;2023-06-26T00:14:19;97081.59;;;15.90;76.23
70968;BME280;58629;48.808;8.820;2023-06-26T00:16:47;97085.44;;;15.89;76.89
70968;BME280;58629;48.808;8.820;2023-06-26T00:19:15;97080.25;;;15.86;76.93
70968;BME280;58629;48.808;8.820;2023-06-26T00:21:40;97080.25;;;15.86;76.03
70968;BME280;58629;48.808;8.820;2023-06-26T00:24:05;97082.47;;;15.78;75.59
70968;BME280;58629;48.808;8.820;2023-06-26T00:26:31;97082.53;;;15.56;76.86
70968;BME280;58629;48.808;8.820;2023-06-26T00:28:56;97084.94;;;15.63;77.12
70968;BME280;58629;48.808;8.820;2023-06-26T00:31:21;97085.97;;;15.66;78.00
70968;BME280;58629;48.808;8.820;2023-06-26T00:33:47;97091.72;;;15.55;77.19
70968;BME280;58629;48.808;8.820;2023-06-26T00:36:12;97084.19;;;15.63;77.25
70968;BME280;58629;48.808;8.820;2023-06-26T00:38:37;97085.81;;;15.60;77.75
70968;BME280;58629;48.808;8.820;2023-06-26T00:41:03;97088.78;;;15.63;77.69
70968;BME280;58629;48.808;8.820;2023-06-26T00:43:28;97086.25;;;15.59;77.50
70968;BME280;58629;48.808;8.820;2023-06-26T00:45:53;97085.63;;;15.55;77.99
70968;BME280;58629;48.808;8.820;2023-06-26T00:48:19;97079.88;;;15.56;78.01
70968;BME280;58629;48.808;8.820;2023-06-26T00:50:44;97082.53;;;15.56;77.91
70968;BME280;58629;48.808;8.820;2023-06-26T00:53:11;97080.56;;;15.48;78.24
70968;BME280;58629;48.808;8.820;2023-06-26T00:55:36;97082.03;;;15.49;78.58
70968;BME280;58629;48.808;8.820;2023-06-26T00:58:02;97083.38;;;15.44;78.84
70968;BME280;58629;48.808;8.820;2023-06-26T01:00:27;97084.84;;;15.45;79.15
70968;BME280;58629;48.808;8.820;2023-06-26T01:02:53;97080.28;;;15.46;79.29
70968;BME280;58629;48.808;8.820;2023-06-26T01:05:18;97087.72;;;15.29;78.43
70968;BME280;58629;48.808;8.820;2023-06-26T01:07:49;97088.00;;;15.22;78.45
70968;BME280;58629;48.808;8.820;2023-06-26T01:10:15;97085.00;;;15.20;79.37
70968;BME280;58629;48.808;8.820;2023-06-26T01:12:41;97082.53;;;15.26;80.01
70968;BME280;58629;48.808;8.820;2023-06-26T01:15:06;97087.53;;;15.24;79.94
70968;BME280;58629;48.808;8.820;2023-06-26T01:17:32;97081.03;;;15.25;79.15
70968;BME280;58629;48.808;8.820;2023-06-26T01:20:02;97075.81;;;15.21;79.61
70968;BME280;58629;48.808;8.820;2023-06-26T01:22:36;97077.75;;;15.21;79.66
70968;BME280;58629;48.808;8.820;2023-06-26T01:26:29;97078.44;;;15.12;79.90
70968;BME280;58629;48.808;8.820;2023-06-26T01:28:24;97069.09;;;15.08;80.31
70968;BME280;58629;48.808;8.820;2023-06-26T01:30:51;97072.81;;;15.10;80.27
70968;BME280;58629;48.808;8.820;2023-06-26T01:33:17;97072.69;;;15.14;80.44
70968;BME280;58629;48.808;8.820;2023-06-26T01:35:42;97070.44;;;15.12;80.51
70968;BME280;58629;48.808;8.820;2023-06-26T01:38:15;97067.03;;;15.12;80.22
70968;BME280;58629;48.808;8.820;2023-06-26T01:40:41;97062.28;;;15.07;80.23
70968;BME280;58629;48.808;8.820;2023-06-26T01:43:09;97059.16;;;15.08;80.05
70968;BME280;58629;48.808;8.820;2023-06-26T01:45:36;97062.28;;;15.07;80.34
70968;BME280;58629;48.808;8.820;2023-06-26T01:48:04;97054.13;;;15.10;79.87
70968;BME280;58629;48.808;8.820;2023-06-26T01:50:33;97055.88;;;15.04;79.91
70968;BME280;58629;48.808;8.820;2023-06-26T01:53:25;97051.44;;;15.01;80.43
70968;BME280;58629;48.808;8.820;2023-06-26T01:55:53;97055.09;;;14.95;81.14
70968;BME280;58629;48.808;8.820;2023-06-26T01:58:23;97051.06;;;14.90;80.94
70968;BME280;58629;48.808;8.820;2023-06-26T02:00:50;97051.38;;;14.92;81.53
70968;BME280;58629;48.808;8.820;2023-06-26T02:03:16;97053.72;;;14.90;81.38
70968;BME280;58629;48.808;8.820;2023-06-26T02:05:41;97053.88;;;14.87;81.38
70968;BME280;58629;48.808;8.820;2023-06-26T02:08:08;97062.16;;;14.89;81.20
70968;BME280;58629;48.808;8.820;2023-06-26T02:10:34;97058.13;;;14.84;81.38
70968;BME280;58629;48.808;8.820;2023-06-26T02:13:00;97056.22;;;14.85;81.38
70968;BME280;58629;48.808;8.820;2023-06-26T02:15:25;97062.00;;;14.83;81.16
70968;BME280;58629;48.808;8.820;2023-06-26T02:17:50;97056.22;;;14.85;80.98
70968;BME280;58629;48.808;8.820;2023-06-26T02:20:16;97063.34;;;14.88;80.67
70968;BME280;58629;48.808;8.820;2023-06-26T02:22:41;97060.50;;;14.82;80.78
70968;BME280;58629;48.808;8.820;2023-06-26T02:25:08;97057.50;;;14.80;80.31
70968;BME280;58629;48.808;8.820;2023-06-26T02:27:33;97061.06;;;14.77;80.80
70968;BME280;58629;48.808;8.820;2023-06-26T02:29:58;97061.50;;;14.75;81.08
70968;BME280;58629;48.808;8.820;2023-06-26T02:32:24;97065.03;;;14.72;80.66
70968;BME280;58629;48.808;8.820;2023-06-26T02:34:49;97062.81;;;14.71;80.72
70968;BME280;58629;48.808;8.820;2023-06-26T02:37:17;97058.00;;;14.66;81.44
70968;BME280;58629;48.808;8.820;2023-06-26T02:39:42;97059.97;;;14.65;81.63
70968;BME280;58629;48.808;8.820;2023-06-26T02:42:07;97055.16;;;14.60;81.39
70968;BME280;58629;48.808;8.820;2023-06-26T02:44:33;97052.19;;;14.58;81.60
70968;BME280;58629;48.808;8.820;2023-06-26T02:46:58;97061.47;;;14.54;81.78
70968;BME280;58629;48.808;8.820;2023-06-26T02:49:23;97060.97;;;14.46;81.09
70968;BME280;58629;48.808;8.820;2023-06-26T02:51:48;97059.81;;;14.47;82.17
70968;BME280;58629;48.808;8.820;2023-06-26T02:54:14;97051.81;;;14.47;82.12
70968;BME280;58629;48.808;8.820;2023-06-26T02:56:39;97065.28;;;14.44;82.20
70968;BME280;58629;48.808;8.820;2023-06-26T02:59:04;97064.22;;;14.41;82.26
70968;BME280;58629;48.808;8.820;2023-06-26T03:01:30;97059.09;;;14.34;82.32
70968;BME280;58629;48.808;8.820;2023-06-26T03:03:55;97066.38;;;14.34;82.80
70968;BME280;58629;48.808;8.820;2023-06-26T03:06:20;97069.03;;;14.21;82.29
70968;BME280;58629;48.808;8.820;2023-06-26T03:08:46;97061.06;;;14.21;82.22
70968;BME280;58629;48.808;8.820;2023-06-26T03:11:11;97068.53;;;14.14;82.50
70968;BME280;58629;48.808;8.820;2023-06-26T03:13:37;97069.59;;;14.16;82.89
70968;BME280;58629;48.808;8.820;2023-06-26T03:16:03;97068.66;;;14.10;83.25
70968;BME280;58629;48.808;8.820;2023-06-26T03:18:29;97066.31;;;14.00;83.05
70968;BME280;58629;48.808;8.820;2023-06-26T03:20:55;97063.78;;;13.96;82.96
70968;BME280;58629;48.808;8.820;2023-06-26T03:23:22;97067.41;;;14.02;83.74
70968;BME280;58629;48.808;8.820;2023-06-26T03:25:48;97065.06;;;14.04;83.81
70968;BME280;58629;48.808;8.820;2023-06-26T03:28:13;97073.88;;;14.01;83.92
70968;BME280;58629;48.808;8.820;2023-06-26T03:30:39;97068.88;;;14.03;84.17
70968;BME280;58629;48.808;8.820;2023-06-26T03:33:04;97070.38;;;14.04;83.85
70968;BME280;58629;48.808;8.820;2023-06-26T03:35:29;97071.00;;;14.08;83.62
70968;BME280;58629;48.808;8.820;2023-06-26T03:37:55;97066.53;;;14.05;83.76
70968;BME280;58629;48.808;8.820;2023-06-26T03:40:20;97068.75;;;14.07;84.02
70968;BME280;58629;48.808;8.820;2023-06-26T03:42:45;97064.28;;;14.04;83.89
70968;BME280;58629;48.808;8.820;2023-06-26T03:45:11;97063.88;;;14.05;84.07
70968;BME280;58629;48.808;8.820;2023-06-26T03:47:36;97066.66;;;14.02;83.97
70968;BME280;58629;48.808;8.820;2023-06-26T03:50:01;97070.47;;;14.01;84.22
70968;BME280;58629;48.808;8.820;2023-06-26T03:52:27;97065.91;;;14.01;83.79
70968;BME280;58629;48.808;8.820;2023-06-26T03:54:52;97070.47;;;14.01;84.07
70968;BME280;58629;48.808;8.820;2023-06-26T03:57:17;97071.97;;;14.02;84.33
70968;BME280;58629;48.808;8.820;2023-06-26T03:59:43;97066.75;;;13.98;83.26
70968;BME280;58629;48.808;8.820;2023-06-26T04:02:08;97071.56;;;13.90;83.60
70968;BME280;58629;48.808;8.820;2023-06-26T04:04:33;97061.66;;;13.91;84.00
70968;BME280;58629;48.808;8.820;2023-06-26T04:06:59;97067.81;;;14.01;84.08
70968;BME280;58629;48.808;8.820;2023-06-26T04:09:25;97062.47;;;14.01;84.72
70968;BME280;58629;48.808;8.820;2023-06-26T04:11:50;97064.28;;;14.04;85.13
70968;BME280;58629;48.808;8.820;2023-06-26T04:14:16;97071.84;;;14.05;84.83
70968;BME280;58629;48.808;8.820;2023-06-26T04:16:41;97070.25;;;14.08;85.09
70968;BME280;58629;48.808;8.820;2023-06-26T04:19:06;97071.31;;;14.10;84.93
70968;BME280;58629;48.808;8.820;2023-06-26T04:21:33;97072.34;;;14.13;84.89
70968;BME280;58629;48.808;8.820;2023-06-26T04:23:58;97070.75;;;14.15;85.08
70968;BME280;58629;48.808;8.820;2023-06-26T04:26:23;97072.16;;;14.20;84.81
70968;BME280;58629;48.808;8.820;2023-06-26T04:28:48;97074.69;;;14.23;84.77
70968;BME280;58629;48.808;8.820;2023-06-26T04:31:14;97069.97;;;14.27;84.95
70968;BME280;58629;48.808;8.820;2023-06-26T04:33:39;97076.41;;;14.30;84.37
70968;BME280;58629;48.808;8.820;2023-06-26T04:36:05;97077.44;;;14.32;84.33
70968;BME280;58629;48.808;8.820;2023-06-26T04:38:32;97074.56;;;14.39;84.85
70968;BME280;58629;48.808;8.820;2023-06-26T04:40:58;97074.63;;;14.48;84.79
70968;BME280;58629;48.808;8.820;2023-06-26T04:43:23;97066.41;;;14.55;83.89
70968;BME280;58629;48.808;8.820;2023-06-26T04:45:48;97062.31;;;14.63;83.68
70968;BME280;58629;48.808;8.820;2023-06-26T04:48:13;97064.59;;;14.74;84.44
70968;BME280;58629;48.808;8.820;2023-06-26T04:50:39;97062.00;;;14.83;84.52
70968;BME280;58629;48.808;8.820;2023-06-26T04:53:05;97059.69;;;14.94;83.31
70968;BME280;58629;48.808;8.820;2023-06-26T04:55:30;97058.56;;;15.04;83.05
70968;BME280;58629;48.808;8.820;2023-06-26T04:57:56;97062.75;;;15.14;81.62
70968;BME280;58629;48.808;8.820;2023-06-26T05:00:21;97058.66;;;15.22;82.12
70968;BME280;58629;48.808;8.820;2023-06-26T05:02:47;97065.50;;;15.32;81.09
70968;BME280;58629;48.808;8.820;2023-06-26T05:05:12;97063.31;;;15.40;80.78
70968;BME280;58629;48.808;8.820;2023-06-26T05:07:38;97055.25;;;15.52;80.04
70968;BME280;58629;48.808;8.820;2023-06-26T05:10:04;97053.66;;;15.64;80.51
70968;BME280;58629;48.808;8.820;2023-06-26T05:12:29;97053.97;;;15.75;80.89
70968;BME280;58629;48.808;8.820;2023-06-26T05:14:55;97051.75;;;15.83;78.82
70968;BME280;58629;48.808;8.820;2023-06-26T05:17:20;97066.91;;;15.95;79.10
70968;BME280;58629;48.808;8.820;2023-06-26T05:19:46;97054.94;;;16.08;78.69
70968;BME280;58629;48.808;8.820;2023-06-26T05:22:12;97055.97;;;16.20;77.83
70968;BME280;58629;48.808;8.820;2023-06-26T05:24:39;97053.59;;;16.31;77.73
70968;BME280;58629;48.808;8.820;2023-06-26T05:27:05;97060.44;;;16.41;77.06
70968;BME280;58629;48.808;8.820;2023-06-26T05:29:31;97045.91;;;16.51;76.54
70968;BME280;58629;48.808;8.820;2023-06-26T05:31:57;97054.50;;;16.64;76.38
70968;BME280;58629;48.808;8.820;2023-06-26T05:34:24;97059.25;;;16.78;75.77
70968;BME280;58629;48.808;8.820;2023-06-26T05:36:51;97056.88;;;16.89;75.17
70968;BME280;58629;48.808;8.820;2023-06-26T05:39:17;97050.13;;;17.03;75.16
70968;BME280;58629;48.808;8.820;2023-06-26T05:41:45;97052.78;;;17.12;73.71
70968;BME280;58629;48.808;8.820;2023-06-26T05:44:11;97049.00;;;17.27;73.04
70968;BME280;58629;48.808;8.820;2023-06-26T05:46:36;97052.53;;;17.43;73.45
70968;BME280;58629;48.808;8.820;2023-06-26T05:49:02;97050.69;;;17.58;72.73
70968;BME280;58629;48.808;8.820;2023-06-26T05:51:28;97046.91;;;17.73;73.45
70968;BME280;58629;48.808;8.820;2023-06-26T05:53:54;97051.59;;;17.87;73.13
70968;BME280;58629;48.808;8.820;2023-06-26T05:56:19;97048.22;;;18.01;72.95
70968;BME280;58629;48.808;8.820;2023-06-26T05:58:46;97052.44;;;18.17;72.01
70968;BME280;58629;48.808;8.820;2023-06-26T06:01:11;97048.31;;;18.31;70.85
70968;BME280;58629;48.808;8.820;2023-06-26T06:03:38;97047.28;;;18.52;71.64
70968;BME280;58629;48.808;8.820;2023-06-26T06:06:04;97054.16;;;18.67;69.42
70968;BME280;58629;48.808;8.820;2023-06-26T06:08:29;97045.94;;;18.85;69.01
70968;BME280;58629;48.808;8.820;2023-06-26T06:10:55;97049.16;;;19.04;68.88
70968;BME280;58629;48.808;8.820;2023-06-26T06:13:20;97049.25;;;19.24;68.24
70968;BME280;58629;48.808;8.820;2023-06-26T06:15:45;97052.50;;;19.43;67.88
70968;BME280;58629;48.808;8.820;2023-06-26T06:18:10;97053.25;;;19.63;66.43
70968;BME280;58629;48.808;8.820;2023-06-26T06:20:36;97051.84;;;19.82;65.48
70968;BME280;58629;48.808;8.820;2023-06-26T06:23:01;97057.41;;;19.99;65.25
70968;BME280;58629;48.808;8.820;2023-06-26T06:25:26;97056.25;;;20.20;62.85
70968;BME280;58629;48.808;8.820;2023-06-26T06:27:52;97047.47;;;20.45;62.75
70968;BME280;58629;48.808;8.820;2023-06-26T06:30:17;97047.91;;;20.64;61.87
70968;BME280;58629;48.808;8.820;2023-06-26T06:32:42;97045.44;;;20.86;61.55
70968;BME280;58629;48.808;8.820;2023-06-26T06:35:08;97053.47;;;21.06;61.55
70968;BME280;58629;48.808;8.820;2023-06-26T06:37:38;97053.88;;;21.25;61.94
70968;BME280;58629;48.808;8.820;2023-06-26T06:40:08;97057.19;;;21.45;63.05
70968;BME280;58629;48.808;8.820;2023-06-26T06:42:34;97058.50;;;21.61;62.14
70968;BME280;58629;48.808;8.820;2023-06-26T06:44:59;97052.09;;;21.84;60.87
70968;BME280;58629;48.808;8.820;2023-06-26T06:47:25;97055.59;;;22.07;60.76
70968;BME280;58629;48.808;8.820;2023-06-26T06:49:50;97061.59;;;22.27;59.99
70968;BME280;58629;48.808;8.820;2023-06-26T06:52:15;97056.25;;;22.50;58.51
70968;BME280;58629;48.808;8.820;2023-06-26T06:54:54;97058.06;;;22.75;57.40
70968;BME280;58629;48.808;8.820;2023-06-26T06:57:23;97061.28;;;23.06;54.48
70968;BME280;58629;48.808;8.820;2023-06-26T06:59:49;97055.66;;;23.38;53.94
70968;BME280;58629;48.808;8.820;2023-06-26T07:02:18;97058.09;;;23.69;50.92
70968;BME280;58629;48.808;8.820;2023-06-26T07:04:44;97046.38;;;24.24;51.02
70968;BME280;58629;48.808;8.820;2023-06-26T07:07:09;97037.84;;;24.55;49.26
70968;BME280;58629;48.808;8.820;2023-06-26T07:09:35;97043.13;;;24.82;48.70
70968;BME280;58629;48.808;8.820;2023-06-26T07:12:01;97039.97;;;25.08;46.56
70968;BME280;58629;48.808;8.820;2023-06-26T07:14:26;97049.69;;;25.28;47.06
70968;BME280;58629;48.808;8.820;2023-06-26T07:16:51;97037.66;;;25.53;45.67
70968;BME280;58629;48.808;8.820;2023-06-26T07:19:17;97040.09;;;25.81;44.16
70968;BME280;58629;48.808;8.820;2023-06-26T07:21:42;97045.84;;;25.96;44.40
70968;BME280;58629;48.808;8.820;2023-06-26T07:24:09;97043.03;;;26.07;43.44
70968;BME280;58629;48.808;8.820;2023-06-26T07:26:35;97037.84;;;26.27;44.22
70968;BME280;58629;48.808;8.820;2023-06-26T07:29:00;97038.19;;;26.37;42.33
70968;BME280;58629;48.808;8.820;2023-06-26T07:31:25;97034.63;;;26.47;41.80
70968;BME280;58629;48.808;8.820;2023-06-26T07:33:50;97031.69;;;26.64;41.75
70968;BME280;58629;48.808;8.820;2023-06-26T07:36:16;97043.81;;;26.82;41.24
70968;BME280;58629;48.808;8.820;2023-06-26T07:38:41;97039.38;;;26.97;40.59
70968;BME280;58629;48.808;8.820;2023-06-26T07:41:07;97037.59;;;27.00;39.49
70968;BME280;58629;48.808;8.820;2023-06-26T07:43:32;97042.66;;;27.22;40.12
70968;BME280;58629;48.808;8.820;2023-06-26T07:45:57;97046.75;;;27.28;40.04
70968;BME280;58629;48.808;8.820;2023-06-26T07:48:26;97044.63;;;27.40;39.46
70968;BME280;58629;48.808;8.820;2023-06-26T07:50:52;97041.50;;;27.62;39.93
70968;BME280;58629;48.808;8.820;2023-06-26T07:53:18;97042.88;;;27.69;38.99
70968;BME280;58629;48.808;8.820;2023-06-26T07:55:43;97046.44;;;27.77;39.78
70968;BME280;58629;48.808;8.820;2023-06-26T07:58:09;97045.28;;;27.85;38.85
70968;BME280;58629;48.808;8.820;2023-06-26T08:00:35;97055.31;;;27.77;38.19
70968;BME280;58629;48.808;8.820;2023-06-26T08:03:00;97046.97;;;27.88;37.70
70968;BME280;58629;48.808;8.820;2023-06-26T08:05:25;97049.28;;;27.97;38.03
70968;BME280;58629;48.808;8.820;2023-06-26T08:07:50;97043.00;;;28.15;38.16
70968;BME280;58629;48.808;8.820;2023-06-26T08:10:16;97046.13;;;28.19;37.99
70968;BME280;58629;48.808;8.820;2023-06-26T08:12:42;97043.81;;;28.23;38.04
70968;BME280;58629;48.808;8.820;2023-06-26T08:15:10;97044.88;;;28.20;37.21
70968;BME280;58629;48.808;8.820;2023-06-26T08:17:35;97044.53;;;28.37;37.20
70968;BME280;58629;48.808;8.820;2023-06-26T08:20:02;97047.56;;;28.34;36.94
70968;BME280;58629;48.808;8.820;2023-06-26T08:22:27;97049.75;;;28.48;36.85
70968;BME280;58629;48.808;8.820;2023-06-26T08:24:52;97041.44;;;28.67;37.76
70968;BME280;58629;48.808;8.820;2023-06-26T08:27:18;97029.97;;;28.81;37.27
70968;BME280;58629;48.808;8.820;2023-06-26T08:29:43;97034.81;;;28.75;36.58
70968;BME280;58629;48.808;8.820;2023-06-26T08:32:08;97034.88;;;28.83;36.62
70968;BME280;58629;48.808;8.820;2023-06-26T08:34:33;97028.97;;;28.92;36.65
70968;BME280;58629;48.808;8.820;2023-06-26T08:36:59;97029.75;;;29.00;35.92
70968;BME280;58629;48.808;8.820;2023-06-26T08:39:24;97033.84;;;28.86;35.56
70968;BME280;58629;48.808;8.820;2023-06-26T08:41:50;97041.88;;;28.91;37.08
70968;BME280;58629;48.808;8.820;2023-06-26T08:44:16;97037.66;;;28.90;35.92
70968;BME280;58629;48.808;8.820;2023-06-26T08:46:42;97038.75;;;29.08;35.55
70968;BME280;58629;48.808;8.820;2023-06-26T08:52:04;97034.03;;;29.08;36.06
70968;BME280;58629;48.808;8.820;2023-06-26T08:54:34;97044.19;;;29.08;35.34
70968;BME280;58629;48.808;8.820;2023-06-26T08:57:02;97045.75;;;28.96;35.92
70968;BME280;58629;48.808;8.820;2023-06-26T08:59:28;97041.25;;;29.06;35.50
70968;BME280;58629;48.808;8.820;2023-06-26T09:01:54;97041.47;;;29.08;35.17
70968;BME280;58629;48.808;8.820;2023-06-26T09:04:20;97047.75;;;29.16;35.37
70968;BME280;58629;48.808;8.820;2023-06-26T09:06:46;97046.69;;;29.19;35.49
70968;BME280;58629;48.808;8.820;2023-06-26T09:09:11;97047.16;;;29.31;35.17
70968;BME280;58629;48.808;8.820;2023-06-26T09:11:36;97046.50;;;29.04;34.84
70968;BME280;58629;48.808;8.820;2023-06-26T09:14:02;97051.47;;;29.26;35.42
70968;BME280;58629;48.808;8.820;2023-06-26T09:16:30;97048.47;;;29.37;34.57
70968;BME280;58629;48.808;8.820;2023-06-26T09:18:56;97055.34;;;29.31;35.39
70968;BME280;58629;48.808;8.820;2023-06-26T09:21:22;97054.00;;;29.45;35.80
70968;BME280;58629;48.808;8.820;2023-06-26T09:23:50;97054.97;;;29.55;34.16
70968;BME280;58629;48.808;8.820;2023-06-26T09:26:16;97043.41;;;29.69;34.78
70968;BME280;58629;48.808;8.820;2023-06-26T09:28:42;97046.06;;;29.75;34.21
70968;BME280;58629;48.808;8.820;2023-06-26T09:31:08;97050.69;;;29.67;34.50
70968;BME280;58629;48.808;8.820;2023-06-26T09:33:36;97041.69;;;29.51;33.82
70968;BME280;58629;48.808;8.820;2023-06-26T09:36:08;97042.72;;;29.69;33.66
70968;BME280;58629;48.808;8.820;2023-06-26T09:38:36;97055.41;;;29.66;35.24
70968;BME280;58629;48.808;8.820;2023-06-26T09:41:04;97058.31;;;28.65;36.00
70968;BME280;58629;48.808;8.820;2023-06-26T09:43:30;97058.47;;;28.80;36.69
70968;BME280;58629;48.808;8.820;2023-06-26T09:45:57;97056.16;;;29.05;36.37
70968;BME280;58629;48.808;8.820;2023-06-26T09:48:23;97056.06;;;29.31;36.78
70968;BME280;58629;48.808;8.820;2023-06-26T09:50:49;97069.56;;;29.85;36.41
70968;BME280;58629;48.808;8.820;2023-06-26T09:53:15;97079.28;;;29.45;36.58
70968;BME280;58629;48.808;8.820;2023-06-26T09:55:43;97074.38;;;29.10;37.69
70968;BME280;58629;48.808;8.820;2023-06-26T09:58:11;97084.00;;;28.70;38.47
70968;BME280;58629;48.808;8.820;2023-06-26T10:00:41;97083.53;;;28.06;38.78
70968;BME280;58629;48.808;8.820;2023-06-26T10:03:08;97088.72;;;27.78;40.43
70968;BME280;58629;48.808;8.820;2023-06-26T10:05:33;97098.13;;;27.64;40.59
70968;BME280;58629;48.808;8.820;2023-06-26T10:08:01;97100.59;;;27.35;41.38
70968;BME280;58629;48.808;8.820;2023-06-26T10:10:27;97094.25;;;27.27;41.05
70968;BME280;58629;48.808;8.820;2023-06-26T10:13:01;97097.03;;;26.72;42.27
70968;BME280;58629;48.808;8.820;2023-06-26T10:15:30;97107.94;;;26.47;43.48
70968;BME280;58629;48.808;8.820;2023-06-26T10:17:56;97103.03;;;26.64;43.93
70968;BME280;58629;48.808;8.820;2023-06-26T10:20:23;97101.72;;;26.90;43.57
70968;BME280;58629;48.808;8.820;2023-06-26T10:22:51;97108.50;;;26.83;43.48
70968;BME280;58629;48.808;8.820;2023-06-26T10:25:19;97112.06;;;26.54;43.65
70968;BME280;58629;48.808;8.820;2023-06-26T10:27:49;97114.41;;;26.63;44.70
70968;BME280;58629;48.808;8.820;2023-06-26T10:30:19;97122.25;;;26.48;44.63
70968;BME280;58629;48.808;8.820;2023-06-26T10:32:46;97123.53;;;26.23;46.01
70968;BME280;58629;48.808;8.820;2023-06-26T10:35:12;97121.31;;;26.21;45.65
70968;BME280;58629;48.808;8.820;2023-06-26T10:40:08;97128.03;;;25.91;47.56
70968;BME280;58629;48.808;8.820;2023-06-26T10:42:35;97130.00;;;25.90;47.58
70968;BME280;58629;48.808;8.820;2023-06-26T10:45:22;97125.94;;;26.02;47.32
70968;BME280;58629;48.808;8.820;2023-06-26T10:47:52;97132.09;;;26.51;46.79
70968;BME280;58629;48.808;8.820;2023-06-26T10:53:07;97129.41;;;27.70;44.28
70968;BME280;58629;48.808;8.820;2023-06-26T10:55:33;97122.13;;;27.91;43.25
70968;BME280;58629;48.808;8.820;2023-06-26T10:57:58;97123.00;;;27.99;43.35
70968;BME280;58629;48.808;8.820;2023-06-26T11:00:23;97117.66;;;28.46;42.47
70968;BME280;58629;48.808;8.820;2023-06-26T11:02:50;97121.72;;;28.66;41.43
70968;BME280;58629;48.808;8.820;2023-06-26T11:05:26;97117.88;;;28.95;41.65
70968;BME280;58629;48.808;8.820;2023-06-26T11:08:08;97119.69;;;29.13;41.89
70968;BME280;58629;48.808;8.820;2023-06-26T11:10:54;97113.28;;;29.44;40.50
70968;BME280;58629;48.808;8.820;2023-06-26T11:13:21;97114.53;;;29.23;40.31
70968;BME280;58629;48.808;8.820;2023-06-26T11:15:47;97104.28;;;29.36;40.92
70968;BME280;58629;48.808;8.820;2023-06-26T11:18:14;97106.88;;;29.62;40.50
70968;BME280;58629;48.808;8.820;2023-06-26T11:20:40;97113.63;;;29.41;41.24
70968;BME280;58629;48.808;8.820;2023-06-26T11:23:08;97112.13;;;29.60;40.80
70968;BME280;58629;48.808;8.820;2023-06-26T11:25:37;97114.53;;;30.13;40.26
70968;BME280;58629;48.808;8.820;2023-06-26T11:28:09;97113.41;;;29.39;40.15
70968;BME280;58629;48.808;8.820;2023-06-26T11:30:35;97131.38;;;29.14;42.18
70968;BME280;58629;48.808;8.820;2023-06-26T11:33:09;97136.97;;;29.49;40.73
70968;BME280;58629;48.808;8.820;2023-06-26T11:35:35;97133.13;;;29.11;41.86
70968;BME280;58629;48.808;8.820;2023-06-26T11:38:03;97151.78;;;29.20;41.40
70968;BME280;58629;48.808;8.820;2023-06-26T11:40:35;97147.19;;;29.15;41.43
70968;BME280;58629;48.808;8.820;2023-06-26T11:43:02;97149.41;;;29.37;41.50
70968;BME280;58629;48.808;8.820;2023-06-26T11:45:31;97155.06;;;29.39;41.31
70968;BME280;58629;48.808;8.820;2023-06-26T11:47:58;97143.03;;;29.35;41.71
70968;BME280;58629;48.808;8.820;2023-06-26T11:50:24;97139.50;;;29.68;41.81
70968;BME280;58629;48.808;8.820;2023-06-26T11:52:54;97142.34;;;29.62;41.03
70968;BME280;58629;48.808;8.820;2023-06-26T11:55:21;97138.44;;;29.71;42.20
70968;BME280;58629;48.808;8.820;2023-06-26T11:57:52;97147.19;;;29.36;42.18
70968;BME280;58629;48.808;8.820;2023-06-26T12:00:18;97147.47;;;29.66;40.99
70968;BME280;58629;48.808;8.820;2023-06-26T12:02:47;97150.72;;;29.44;40.77
70968;BME280;58629;48.808;8.820;2023-06-26T12:05:16;97161.72;;;29.31;40.90
70968;BME280;58629;48.808;8.820;2023-06-26T12:07:43;97161.44;;;29.21;40.39
70968;BME280;58629;48.808;8.820;2023-06-26T12:10:13;97158.72;;;29.21;40.90
70968;BME280;58629;48.808;8.820;2023-06-26T12:12:39;97157.72;;;29.52;41.28
70968;BME280;58629;48.808;8.820;2023-06-26T12:15:06;97151.69;;;29.46;39.99
70968;BME280;58629;48.808;8.820;2023-06-26T12:17:32;97154.81;;;29.50;41.52
70968;BME280;58629;48.808;8.820;2023-06-26T12:19:58;97152.91;;;29.79;39.71
70968;BME280;58629;48.808;8.820;2023-06-26T12:22:23;97152.25;;;28.98;39.54
70968;BME280;58629;48.808;8.820;2023-06-26T12:24:49;97157.13;;;29.26;39.87
70968;BME280;58629;48.808;8.820;2023-06-26T12:27:17;97157.72;;;29.32;39.94
70968;BME280;58629;48.808;8.820;2023-06-26T12:29:49;97146.16;;;29.39;40.23
70968;BME280;58629;48.808;8.820;2023-06-26T12:32:16;97151.44;;;29.57;40.07
70968;BME280;58629;48.808;8.820;2023-06-26T12:34:42;97152.56;;;29.41;39.25
70968;BME280;58629;48.808;8.820;2023-06-26T12:37:11;97146.69;;;29.58;39.52
70968;BME280;58629;48.808;8.820;2023-06-26T12:42:14;97150.94;;;29.12;39.42
70968;BME280;58629;48.808;8.820;2023-06-26T12:44:40;97159.13;;;29.66;39.01
70968;BME280;58629;48.808;8.820;2023-06-26T12:47:06;97150.28;;;29.94;38.13
70968;BME280;58629;48.808;8.820;2023-06-26T12:49:36;97152.00;;;30.05;37.42
70968;BME280;58629;48.808;8.820;2023-06-26T12:52:05;97151.47;;;30.34;37.25
70968;BME280;58629;48.808;8.820;2023-06-26T12:54:30;97152.81;;;30.20;35.93
70968;BME280;58629;48.808;8.820;2023-06-26T12:56:57;97157.81;;;29.39;37.17
70968;BME280;58629;48.808;8.820;2023-06-26T12:59:23;97160.34;;;29.37;36.68
70968;BME280;58629;48.808;8.820;2023-06-26T13:01:48;97153.41;;;29.36;37.54
70968;BME280;58629;48.808;8.820;2023-06-26T13:04:14;97155.84;;;29.81;36.77
70968;BME280;58629;48.808;8.820;2023-06-26T13:06:40;97154.81;;;29.91;36.21
70968;BME280;58629;48.808;8.820;2023-06-26T13:09:06;97153.16;;;29.88;35.32